»·PEaware :: FDX412 KSNA-KPHX

FDX412 :: KSNA-KPHX

FLIGHT INFORMATION

Flight Status: Arrived
Operator:
Federal Express
More flights by this operator :: More flights under this callsign
Pilot: Matthew M. (8235)
Aircraft: DEHAVILLAND DASH 8 400
(DH8D)
More flights by this aircraft type
Origin: KSNA John Wayne-Orange Co
United States
Destination: KPHX Phoenix Sky Harbor Intl
United States
More flights between these airports :: More routes between these airports
Route: +PIGGN2 CNERY BLH V16 PXR
File this flight plan on PilotEdge
Remarks:
Altitude:
(Current/Filed)
23,000ft
Speed:
(Current/Filed)
324kts
Departed: 04-Mar-20 10:42 AM
Arrived: 04-Mar-20 11:46 AM
Distance/Time
Traveled:
293nm/1:03
Distance/Time
To Go:
Arrived

Flight Plot

Page will automatically refresh every two minutes.

Flight plan parsing failed; only flown route is shown


Map Options




Map Legend


Flown Route
Filed Route
Departure Airport
Arrival Airport
Navaid (VOR, NDB)
Fix

Horizontal Profiles

Position Reports

Time Latitude Longitude Heading Altitude Ground
Speed
04-Mar-20 10:23 33.674462 -117.864798 128 63ft 0kts
04-Mar-20 10:24 33.674462 -117.864798 128 63ft 0kts
04-Mar-20 10:25 33.674462 -117.864798 128 63ft 0kts
04-Mar-20 10:27 33.674462 -117.864798 128 63ft 0kts
04-Mar-20 10:28 33.674462 -117.864798 128 63ft 0kts
04-Mar-20 10:29 33.674462 -117.864798 128 63ft 0kts
04-Mar-20 10:30 33.674462 -117.864798 128 63ft 0kts
04-Mar-20 10:31 33.674462 -117.864798 128 63ft 0kts
04-Mar-20 10:32 33.674462 -117.864798 128 63ft 0kts
04-Mar-20 10:33 33.674462 -117.864798 128 63ft 0kts
04-Mar-20 10:34 33.674462 -117.864798 128 63ft 0kts
04-Mar-20 10:35 33.674462 -117.864798 128 63ft 0kts
04-Mar-20 10:36 33.674581 -117.864797 247 63ft 4kts
04-Mar-20 10:37 33.674291 -117.865624 240 63ft 0kts
04-Mar-20 10:38 33.674296 -117.865614 241 63ft 0kts
04-Mar-20 10:39 33.674298 -117.865613 241 63ft 0kts
04-Mar-20 10:40 33.677233 -117.864316 25 63ft 29kts
04-Mar-20 10:41 33.679811 -117.863889 295 63ft 10kts
04-Mar-20 10:42 33.676867 -117.868054 209 63ft 87kts
04-Mar-20 10:43 33.644546 -117.886251 198 1748ft 148kts
04-Mar-20 10:44 33.593719 -117.896627 184 3289ft 223kts
04-Mar-20 10:45 33.532120 -117.874668 152 5366ft 244kts
04-Mar-20 10:46 33.490273 -117.813832 114 7559ft 252kts
04-Mar-20 10:46 33.477468 -117.746441 84 8855ft 259kts
04-Mar-20 10:48 33.502116 -117.652601 57 10442ft 260kts
04-Mar-20 10:48 33.531721 -117.590796 56 11506ft 260kts
04-Mar-20 10:49 33.566072 -117.518905 55 12812ft 257kts
04-Mar-20 10:50 33.567750 -117.437758 102 13827ft 277kts
04-Mar-20 10:52 33.537990 -117.337194 107 14883ft 284kts
04-Mar-20 10:52 33.515232 -117.266102 107 15555ft 292kts
04-Mar-20 10:53 33.502862 -117.170870 84 16359ft 292kts
04-Mar-20 10:54 33.501885 -117.070902 87 17174ft 298kts
04-Mar-20 10:55 33.499511 -116.973617 87 17956ft 300kts
04-Mar-20 10:56 33.497535 -116.874929 86 18745ft 301kts
04-Mar-20 10:57 33.496660 -116.774388 86 19543ft 301kts
04-Mar-20 10:58 33.495441 -116.674647 86 20339ft 300kts
04-Mar-20 10:59 33.494197 -116.577829 86 21065ft 301kts
04-Mar-20 11:00 33.492979 -116.480106 86 21498ft 308kts
04-Mar-20 11:01 33.491574 -116.380326 87 21884ft 317kts
04-Mar-20 11:02 33.489914 -116.276255 87 22277ft 323kts
04-Mar-20 11:03 33.488341 -116.171542 87 22665ft 328kts
04-Mar-20 11:04 33.486580 -116.065295 87 22954ft 334kts
04-Mar-20 11:05 33.507086 -115.960283 63 22976ft 335kts
04-Mar-20 11:06 33.538407 -115.856347 66 22977ft 344kts
04-Mar-20 11:07 33.569077 -115.749852 66 22977ft 348kts
04-Mar-20 11:08 33.600198 -115.642892 66 22976ft 351kts
04-Mar-20 11:09 33.618153 -115.530823 89 22980ft 362kts
04-Mar-20 11:10 33.612895 -115.412889 87 22980ft 363kts
04-Mar-20 11:11 33.610791 -115.295603 87 22983ft 361kts
04-Mar-20 11:12 33.607749 -115.180341 88 22981ft 362kts
04-Mar-20 11:13 33.604566 -115.062713 88 22982ft 363kts
04-Mar-20 11:14 33.601280 -114.945570 88 22983ft 363kts
04-Mar-20 11:15 33.598043 -114.828969 87 22984ft 363kts
04-Mar-20 11:16 33.593747 -114.711248 90 22984ft 364kts
04-Mar-20 11:17 33.584725 -114.592321 91 22984ft 365kts
04-Mar-20 11:18 33.576875 -114.475111 90 22985ft 362kts
04-Mar-20 11:19 33.568773 -114.356378 90 22984ft 363kts
04-Mar-20 11:20 33.560622 -114.239843 90 22987ft 364kts
04-Mar-20 11:21 33.552400 -114.122213 90 22990ft 366kts
04-Mar-20 11:22 33.543827 -114.002021 91 22991ft 367kts
04-Mar-20 11:23 33.535027 -113.881599 91 22976ft 367kts
04-Mar-20 11:24 33.526094 -113.758021 92 21554ft 381kts
04-Mar-20 11:25 33.516951 -113.634492 92 20159ft 363kts
04-Mar-20 11:26 33.508316 -113.519482 93 18859ft 350kts
04-Mar-20 11:27 33.500071 -113.411922 93 17665ft 341kts
04-Mar-20 11:28 33.491582 -113.302673 93 16433ft 335kts
04-Mar-20 11:29 33.483174 -113.195033 93 15216ft 330kts
04-Mar-20 11:30 33.474845 -113.089541 94 14022ft 326kts
04-Mar-20 11:31 33.466384 -112.983708 94 12825ft 321kts
04-Mar-20 11:32 33.458070 -112.881635 94 11472ft 295kts
04-Mar-20 11:33 33.451849 -112.788692 90 11043ft 278kts
04-Mar-20 11:34 33.450686 -112.698630 90 11029ft 284kts
04-Mar-20 11:35 33.442898 -112.605306 115 9934ft 314kts
04-Mar-20 11:36 33.428547 -112.511660 88 8632ft 269kts
04-Mar-20 11:37 33.429730 -112.430241 89 7512ft 234kts
04-Mar-20 11:38 33.429790 -112.358427 89 6429ft 204kts
04-Mar-20 11:39 33.429608 -112.292581 90 5405ft 204kts
04-Mar-20 11:40 33.429508 -112.230911 90 4453ft 183kts
04-Mar-20 11:41 33.429239 -112.168644 91 3427ft 180kts
04-Mar-20 11:42 33.429109 -112.112753 91 2568ft 161kts
04-Mar-20 11:43 33.429022 -112.064142 91 1759ft 127kts
04-Mar-20 11:44 33.428845 -112.020597 90 1143ft 109kts
04-Mar-20 11:45 33.427794 -112.012048 268 1142ft 20kts
04-Mar-20 11:46 33.427167 -112.017137 178 1142ft 12kts
04-Mar-20 11:47 33.425006 -112.016626 88 1142ft 10kts
04-Mar-20 11:48 33.425009 -112.016459 91 1142ft 0kts
04-Mar-20 11:49 33.425007 -112.016388 91 1142ft 0kts
04-Mar-20 11:50 33.425007 -112.016388 91 1142ft 0kts
04-Mar-20 11:51 33.425007 -112.016388 91 1142ft 0kts
04-Mar-20 11:52 33.425007 -112.016388 91 1142ft 0kts
04-Mar-20 11:53 33.425007 -112.016388 91 1142ft 0kts
04-Mar-20 11:54 33.425007 -112.016388 91 1142ft 0kts
04-Mar-20 11:55 33.425007 -112.016388 91 1142ft 0kts
04-Mar-20 11:56 33.425007 -112.016388 91 1142ft 0kts

Navigation Log

Ident Type
Flight plan parsing failed, navigation log unavailable